Ah Gwah Ching, Minnesota
Current Conditions -  °F | °C
As of 10:55 PM on Monday 22 Dec 2014 (Local Time) from KY49 Reporting Station
Light Snow Light Snow  
Wind Chill: 27°   Ceiling: 400
Heat Index: 32°   Visibility: 3mi
Dew Point: 32°   Wind: 5mph
Humidity: 99%   Direction: 70°ENE
Pressure: 29.71"   Gusts: NA
Location:  47.08°N, 94.57°W
Report Text: KY49 230455Z AUTO 07004KT 3SM -SN OVC004 00/00 A2971 RMK AO2 T00001001
Loading
Personal Weather Stations






























Interactive Weather Map New forecast layout! Learn more

10-Day Weather Forecast

Advertisements
Track Severe Weather on mobile